Time;durP1;ratioP1;P1;durP2;ratioP2;P2;SDS_P1;SDS_P2;PMS_P1;PMS_P2;Temp;Humidity;BMP_temperature;BMP_pressure;BME280_temperature;BME280_humidity;BME280_pressure;Samples;Min_cycle;Max_cycle;Signal;HPM_P1;HPM_P2
2021/09/15 00:00:16;;;;;;;1999.90;999.90;;;;;;;15.34;67.42;95875.91;5030763;28;20198;-69
2021/09/15 00:02:44;;;;;;;1999.90;999.90;;;;;;;15.17;67.71;95880.44;5030949;28;20249;-68
2021/09/15 00:05:11;;;;;;;1999.90;999.90;;;;;;;14.94;69.27;95878.00;5030641;28;20202;-68
2021/09/15 00:07:38;;;;;;;1999.90;999.90;;;;;;;14.78;69.91;95873.59;5041085;28;20236;-69
2021/09/15 00:10:07;;;;;;;1999.90;999.90;;;;;;;14.63;70.44;95883.47;5050672;28;20591;-69
2021/09/15 00:12:34;;;;;;;1999.90;999.90;;;;;;;14.60;70.79;95881.44;5050709;28;20378;-69
2021/09/15 00:15:03;;;;;;;1999.90;999.90;;;;;;;14.56;71.30;95879.75;5049838;28;20288;-69
2021/09/15 00:17:30;;;;;;;1999.90;999.90;;;;;;;14.55;71.57;95880.81;5050617;28;20216;-68
2021/09/15 00:19:58;;;;;;;1999.90;999.90;;;;;;;14.39;72.37;95877.16;5050647;28;20311;-70
2021/09/15 00:22:25;;;;;;;1999.90;999.90;;;;;;;14.32;73.43;95874.97;5034936;28;20202;-69
2021/09/15 00:24:52;;;;;;;1999.90;999.90;;;;;;;14.13;73.60;95880.50;5030301;28;20690;-70
2021/09/15 00:27:19;;;;;;;1999.90;999.90;;;;;;;14.06;73.89;95882.00;5030247;28;20583;-69
2021/09/15 00:29:46;;;;;;;1999.90;999.90;;;;;;;13.97;74.11;95889.06;5030365;28;20620;-70
2021/09/15 00:32:15;;;;;;;1999.90;999.90;;;;;;;14.03;74.03;95886.00;5030449;28;20202;-69
2021/09/15 00:34:42;;;;;;;1999.90;999.90;;;;;;;14.09;73.62;95889.25;5030481;28;20193;-70
2021/09/15 00:37:10;;;;;;;1999.90;999.90;;;;;;;14.07;73.79;95892.16;5029549;28;20197;-70
2021/09/15 00:39:37;;;;;;;1999.90;999.90;;;;;;;14.09;73.75;95894.47;5030138;28;20704;-69
2021/09/15 00:42:04;;;;;;;1999.90;999.90;;;;;;;14.09;73.78;95897.09;5030279;28;20251;-69
2021/09/15 00:44:32;;;;;;;1999.90;999.90;;;;;;;14.15;73.42;95906.31;5030103;28;20194;-70
2021/09/15 00:46:59;;;;;;;1999.90;999.90;;;;;;;14.12;73.54;95901.69;5030345;28;20251;-69
2021/09/15 00:49:27;;;;;;;1999.90;999.90;;;;;;;14.15;73.57;95898.47;5030545;28;20285;-70
2021/09/15 00:51:55;;;;;;;1999.90;999.90;;;;;;;14.07;74.10;95907.84;5030218;28;20674;-69
2021/09/15 00:54:22;;;;;;;1999.90;999.90;;;;;;;14.02;74.72;95913.22;5030414;28;20630;-70
2021/09/15 00:56:49;;;;;;;1999.90;999.90;;;;;;;13.99;74.34;95905.22;5029955;28;20198;-69
2021/09/15 00:59:16;;;;;;;1999.90;999.90;;;;;;;13.97;74.44;95908.13;5030208;28;20585;-70
2021/09/15 01:01:43;;;;;;;1999.90;999.90;;;;;;;14.00;74.11;95906.72;5029889;28;20682;-69
2021/09/15 01:04:12;;;;;;;1999.90;999.90;;;;;;;13.92;74.70;95907.50;5030171;28;20198;-70
2021/09/15 01:06:41;;;;;;;1999.90;999.90;;;;;;;13.50;76.11;95908.91;5029552;28;22261;-69
2021/09/15 01:09:09;;;;;;;1999.90;999.90;;;;;;;13.37;77.19;95915.75;5029749;28;20678;-68
2021/09/15 01:11:38;;;;;;;1999.90;999.90;;;;;;;13.47;76.48;95912.88;5030155;28;20617;-68
2021/09/15 01:14:06;;;;;;;1999.90;999.90;;;;;;;13.44;76.85;95907.47;5029863;28;20222;-68
2021/09/15 01:16:48;;;;;;;1999.90;999.90;;;;;;;13.32;77.46;95910.66;5029608;28;20240;-67
2021/09/15 01:19:16;;;;;;;1999.90;999.90;;;;;;;13.30;77.31;95910.16;5030093;28;20294;-68
2021/09/15 01:21:44;;;;;;;1999.90;999.90;;;;;;;13.17;78.02;95905.81;5029723;28;20240;-68
2021/09/15 01:24:12;;;;;;;1999.90;999.90;;;;;;;13.17;77.95;95900.59;5029615;28;20735;-69
2021/09/15 01:26:39;;;;;;;1999.90;999.90;;;;;;;13.10;78.35;95903.56;5029664;28;20229;-68
2021/09/15 01:29:07;;;;;;;1999.90;999.90;;;;;;;13.05;78.05;95901.09;5029619;28;20989;-68
2021/09/15 01:31:34;;;;;;;1999.90;999.90;;;;;;;12.99;78.05;95914.56;5029665;28;20198;-68
2021/09/15 01:34:01;;;;;;;1999.90;999.90;;;;;;;12.77;79.37;95905.69;5029750;28;20252;-69
2021/09/15 01:36:29;;;;;;;1999.90;999.90;;;;;;;12.74;79.27;95908.91;5029626;28;20251;-68
2021/09/15 01:38:57;;;;;;;1999.90;999.90;;;;;;;12.43;78.95;95913.25;5029595;28;20202;-70
2021/09/15 01:41:24;;;;;;;1999.90;999.90;;;;;;;12.27;79.71;95914.63;5029822;28;20582;-69
2021/09/15 01:43:52;;;;;;;1999.90;999.90;;;;;;;12.29;79.58;95913.28;5029402;28;20229;-68
2021/09/15 01:46:19;;;;;;;1999.90;999.90;;;;;;;12.36;81.06;95918.84;5029548;28;20202;-69
2021/09/15 01:48:46;;;;;;;1999.90;999.90;;;;;;;12.66;80.84;95912.19;5030698;28;20263;-69
2021/09/15 01:51:13;;;;;;;1999.90;999.90;;;;;;;12.95;79.93;95909.94;5033170;28;20247;-69
2021/09/15 01:53:40;;;;;;;1999.90;999.90;;;;;;;13.09;79.13;95919.56;5033052;28;20225;-70
2021/09/15 01:56:09;;;;;;;1999.90;999.90;;;;;;;13.13;78.03;95912.69;5033468;28;20202;-69
2021/09/15 01:58:36;;;;;;;1999.90;999.90;;;;;;;13.06;76.95;95902.63;5033042;28;20255;-70
2021/09/15 02:01:03;;;;;;;1999.90;999.90;;;;;;;12.82;77.52;95910.00;5030506;28;20216;-69
2021/09/15 02:03:30;;;;;;;1999.90;999.90;;;;;;;12.69;77.60;95919.44;5030305;28;20202;-69
2021/09/15 02:05:59;;;;;;;1999.90;999.90;;;;;;;12.59;77.95;95924.09;5030871;28;20208;-68
2021/09/15 02:08:27;;;;;;;1999.90;999.90;;;;;;;12.38;78.20;95923.78;5032019;28;20661;-69
2021/09/15 02:10:54;;;;;;;1999.90;999.90;;;;;;;12.17;78.35;95920.81;5032134;28;20197;-69
2021/09/15 02:13:23;;;;;;;1999.90;999.90;;;;;;;11.91;79.59;95923.16;5030456;28;20606;-68
2021/09/15 02:15:50;;;;;;;1999.90;999.90;;;;;;;11.96;79.56;95920.47;5032099;28;20647;-69
2021/09/15 02:18:17;;;;;;;1999.90;999.90;;;;;;;11.86;79.84;95917.28;5032735;28;20198;-69
2021/09/15 02:20:44;;;;;;;1999.90;999.90;;;;;;;11.84;79.77;95917.59;5032911;28;20204;-70
2021/09/15 02:23:11;;;;;;;1999.90;999.90;;;;;;;11.60;80.14;95916.97;5032786;28;20248;-70
2021/09/15 02:25:38;;;;;;;1999.90;999.90;;;;;;;11.55;80.78;95919.69;5032362;28;20663;-69
2021/09/15 02:28:05;;;;;;;1999.90;999.90;;;;;;;11.69;83.09;95917.84;5032587;28;20201;-70
2021/09/15 02:30:35;;;;;;;1999.90;999.90;;;;;;;11.78;84.68;95925.78;5032395;28;20198;-70
2021/09/15 02:33:02;;;;;;;1999.90;999.90;;;;;;;11.71;85.50;95920.13;5032298;28;20739;-68
2021/09/15 02:35:29;;;;;;;1999.90;999.90;;;;;;;11.63;85.87;95922.38;5032143;28;20212;-69
2021/09/15 02:37:56;;;;;;;1999.90;999.90;;;;;;;11.59;85.69;95925.84;5032447;28;20610;-69
2021/09/15 02:40:23;;;;;;;1999.90;999.90;;;;;;;11.57;86.54;95925.34;5032016;28;20204;-68
2021/09/15 02:42:50;;;;;;;1999.90;999.90;;;;;;;11.63;85.95;95921.59;5032036;28;20216;-68
2021/09/15 02:45:18;;;;;;;1999.90;999.90;;;;;;;11.57;85.99;95923.53;5032389;28;20224;-69
2021/09/15 02:47:46;;;;;;;1999.90;999.90;;;;;;;11.50;86.55;95924.97;5032185;28;20209;-69
2021/09/15 02:50:13;;;;;;;1999.90;999.90;;;;;;;11.50;86.54;95917.94;5032001;28;20280;-71
2021/09/15 02:52:41;;;;;;;1999.90;999.90;;;;;;;11.45;87.36;95923.22;5031554;28;20623;-68
2021/09/15 02:55:09;;;;;;;1999.90;999.90;;;;;;;11.50;86.79;95923.16;5031831;28;20202;-68
2021/09/15 02:57:36;;;;;;;1999.90;999.90;;;;;;;11.47;86.93;95930.72;5031798;28;20202;-68
2021/09/15 03:00:04;;;;;;;1999.90;999.90;;;;;;;11.57;86.94;95925.34;5031091;28;20190;-70
2021/09/15 03:02:32;;;;;;;1999.90;999.90;;;;;;;11.61;86.65;95923.72;5032275;28;20668;-69
2021/09/15 03:05:00;;;;;;;1999.90;999.90;;;;;;;11.59;86.70;95923.25;5031692;28;20190;-70
2021/09/15 03:07:27;;;;;;;1999.90;999.90;;;;;;;11.57;87.22;95923.53;5031204;28;20237;-69
2021/09/15 03:09:55;;;;;;;1999.90;999.90;;;;;;;11.56;86.57;95924.56;5031586;28;20216;-68
2021/09/15 03:12:22;;;;;;;1999.90;999.90;;;;;;;11.54;86.78;95931.13;5031518;28;20198;-69
2021/09/15 03:14:49;;;;;;;1999.90;999.90;;;;;;;11.55;86.55;95924.88;5031673;28;20541;-68
2021/09/15 03:17:16;;;;;;;1999.90;999.90;;;;;;;11.60;86.88;95932.59;5031461;28;20206;-69
2021/09/15 03:19:43;;;;;;;1999.90;999.90;;;;;;;11.52;86.98;95935.84;5031418;28;20202;-68
2021/09/15 03:22:12;;;;;;;1999.90;999.90;;;;;;;11.52;87.17;95936.63;5031601;28;20220;-69
2021/09/15 03:24:39;;;;;;;1999.90;999.90;;;;;;;11.52;86.93;95941.06;5021587;28;20257;-69
2021/09/15 03:27:06;;;;;;;1999.90;999.90;;;;;;;11.45;87.19;95940.69;5011526;28;20198;-69
2021/09/15 03:29:34;;;;;;;1999.90;999.90;;;;;;;11.40;87.24;95943.38;5011228;28;20198;-69
2021/09/15 03:32:01;;;;;;;1999.90;999.90;;;;;;;11.30;88.04;95949.53;5011304;28;20198;-69
2021/09/15 03:34:29;;;;;;;1999.90;999.90;;;;;;;11.38;88.05;95945.47;5027190;28;20264;-69
2021/09/15 03:36:56;;;;;;;1999.90;999.90;;;;;;;11.39;87.68;95947.03;5024814;28;20214;-69
2021/09/15 03:39:24;;;;;;;1999.90;999.90;;;;;;;11.45;87.81;95946.66;5019634;28;20260;-70
2021/09/15 03:41:51;;;;;;;1999.90;999.90;;;;;;;11.38;88.22;95942.88;5017284;28;20206;-69
2021/09/15 03:44:19;;;;;;;1999.90;999.90;;;;;;;11.42;88.17;95952.41;5027542;28;20194;-69
2021/09/15 03:46:46;;;;;;;1999.90;999.90;;;;;;;11.35;86.88;95957.25;5028718;28;20670;-70
2021/09/15 03:49:13;;;;;;;1999.90;999.90;;;;;;;11.32;86.15;95957.78;5030331;28;20293;-70
2021/09/15 03:51:40;;;;;;;1999.90;999.90;;;;;;;11.32;86.07;95959.63;5030917;28;20213;-70
2021/09/15 03:54:07;;;;;;;1999.90;999.90;;;;;;;11.34;86.87;95955.69;5026940;28;20275;-70
2021/09/15 03:56:36;;;;;;;1999.90;999.90;;;;;;;11.33;86.93;95955.97;5030647;28;20662;-71
2021/09/15 03:59:03;;;;;;;1999.90;999.90;;;;;;;11.26;86.28;95958.94;5030927;28;20559;-68
2021/09/15 04:01:31;;;;;;;1999.90;999.90;;;;;;;11.17;85.46;95961.41;5027183;28;20636;-70
2021/09/15 04:03:58;;;;;;;1999.90;999.90;;;;;;;11.21;84.50;95965.00;5026106;28;20198;-70
2021/09/15 04:06:25;;;;;;;1999.90;999.90;;;;;;;11.16;85.23;95970.28;5028141;28;20206;-71
2021/09/15 04:08:52;;;;;;;1999.90;999.90;;;;;;;11.10;86.29;95965.44;5029344;28;20194;-70
2021/09/15 04:11:19;;;;;;;1999.90;999.90;;;;;;;10.96;86.11;95973.19;5030511;28;20197;-71
2021/09/15 04:13:48;;;;;;;1999.90;999.90;;;;;;;10.70;84.34;95969.44;5030044;28;20225;-71
2021/09/15 04:16:15;;;;;;;1999.90;999.90;;;;;;;10.53;83.65;95982.13;5030814;28;20202;-71
2021/09/15 04:18:42;;;;;;;1999.90;999.90;;;;;;;10.46;83.42;95976.53;5013248;28;20206;-70
2021/09/15 04:21:09;;;;;;;1999.90;999.90;;;;;;;10.35;84.84;95976.66;5011059;28;20281;-70
2021/09/15 04:23:45;;;;;;;1999.90;999.90;;;;;;;10.20;84.93;95989.81;5010729;28;20671;-70
2021/09/15 04:31:42;;;;;;;1999.90;999.90;;;;;;;10.30;87.24;96000.09;5010673;28;20185;-71
2021/09/15 04:34:10;;;;;;;1999.90;999.90;;;;;;;10.45;86.69;95998.34;5010826;28;20226;-69
2021/09/15 04:36:37;;;;;;;1999.90;999.90;;;;;;;10.46;87.41;95994.72;5010493;28;20226;-70
2021/09/15 04:39:04;;;;;;;1999.90;999.90;;;;;;;10.48;87.98;96001.16;5010645;28;20217;-70
2021/09/15 04:41:31;;;;;;;1999.90;999.90;;;;;;;10.42;89.39;96004.09;5010680;28;20261;-70
2021/09/15 04:44:00;;;;;;;1999.90;999.90;;;;;;;10.48;89.65;96005.59;5010705;28;20293;-71
2021/09/15 04:46:27;;;;;;;1999.90;999.90;;;;;;;10.51;90.41;96005.03;5010782;28;20217;-71
2021/09/15 04:48:54;;;;;;;1999.90;999.90;;;;;;;10.61;90.19;96010.09;5010337;28;20204;-70
2021/09/15 04:51:22;;;;;;;1999.90;999.90;;;;;;;10.81;89.98;96012.41;5010455;28;20205;-70
2021/09/15 04:53:49;;;;;;;1999.90;999.90;;;;;;;10.92;90.39;96005.25;5010496;28;20229;-71
2021/09/15 04:56:16;;;;;;;1999.90;999.90;;;;;;;10.94;91.43;96008.34;5010366;28;20249;-70
2021/09/15 04:58:43;;;;;;;1999.90;999.90;;;;;;;10.89;92.65;96006.59;5010273;28;20191;-70
2021/09/15 05:01:12;;;;;;;1999.90;999.90;;;;;;;10.94;93.08;96006.53;5010162;28;20284;-69
2021/09/15 05:03:39;;;;;;;1999.90;999.90;;;;;;;11.06;93.28;96012.03;5010252;28;20209;-70
2021/09/15 05:06:06;;;;;;;1999.90;999.90;;;;;;;11.34;92.65;96012.16;5010126;28;20203;-70
2021/09/15 05:08:33;;;;;;;1999.90;999.90;;;;;;;11.50;92.22;96011.63;5028236;28;20237;-70
2021/09/15 05:11:00;;;;;;;1999.90;999.90;;;;;;;11.55;93.50;96002.97;5030116;28;20243;-70
2021/09/15 05:13:28;;;;;;;1999.90;999.90;;;;;;;11.55;93.45;96008.94;5029751;28;20292;-71
2021/09/15 05:15:55;;;;;;;1999.90;999.90;;;;;;;11.56;92.98;96007.09;5029711;28;20204;-70
2021/09/15 05:18:26;;;;;;;1999.90;999.90;;;;;;;11.69;92.83;96006.38;5029742;28;20288;-70
2021/09/15 05:20:53;;;;;;;1999.90;999.90;;;;;;;12.17;92.51;96008.63;5029768;28;20185;-70
2021/09/15 05:23:20;;;;;;;1999.90;999.90;;;;;;;13.09;89.96;96001.22;5030742;28;20198;-70
2021/09/15 05:25:47;;;;;;;1999.90;999.90;;;;;;;13.79;84.42;96006.59;5033643;28;20662;-71
2021/09/15 05:28:14;;;;;;;1999.90;999.90;;;;;;;14.40;81.25;96009.41;5033742;28;20284;-70
2021/09/15 05:30:42;;;;;;;1999.90;999.90;;;;;;;14.95;77.84;96007.78;5033532;28;20712;-69
2021/09/15 05:33:09;;;;;;;1999.90;999.90;;;;;;;15.39;74.89;96006.69;5033874;28;20201;-70
2021/09/15 05:35:38;;;;;;;1999.90;999.90;;;;;;;15.78;72.59;96010.97;5033212;28;20225;-70
2021/09/15 05:38:05;;;;;;;1999.90;999.90;;;;;;;16.19;71.13;96020.81;5033457;28;20577;-70
2021/09/15 05:40:32;;;;;;;1999.90;999.90;;;;;;;16.23;70.70;96019.13;5033596;28;20198;-71
2021/09/15 05:42:59;;;;;;;1999.90;999.90;;;;;;;16.21;69.38;96021.28;5033418;28;20201;-69
2021/09/15 05:45:26;;;;;;;1999.90;999.90;;;;;;;15.59;71.44;96017.66;5033404;28;20670;-70
2021/09/15 05:47:54;;;;;;;1999.90;999.90;;;;;;;15.42;72.76;96013.94;5032827;28;20212;-70
2021/09/15 05:50:21;;;;;;;1999.90;999.90;;;;;;;15.28;74.50;96013.34;5033146;28;20201;-70
2021/09/15 05:52:49;;;;;;;1999.90;999.90;;;;;;;15.17;74.47;96014.75;5033097;28;20561;-70
2021/09/15 05:55:17;;;;;;;1999.90;999.90;;;;;;;15.21;73.75;96017.50;5033169;28;20217;-69
2021/09/15 05:57:44;;;;;;;1999.90;999.90;;;;;;;15.15;74.44;96014.25;5032978;28;20221;-70
2021/09/15 06:00:12;;;;;;;1999.90;999.90;;;;;;;15.23;74.13;96010.13;5032815;28;20205;-70
2021/09/15 06:02:39;;;;;;;1999.90;999.90;;;;;;;15.40;74.92;96010.84;5033629;28;20206;-70
2021/09/15 06:05:07;;;;;;;1999.90;999.90;;;;;;;15.49;74.48;96006.38;5033306;28;20202;-69
2021/09/15 06:07:34;;;;;;;1999.90;999.90;;;;;;;15.70;74.07;96008.34;5032665;28;20328;-71
2021/09/15 06:10:03;;;;;;;1999.90;999.90;;;;;;;15.90;73.06;96011.06;5033098;28;20206;-69
2021/09/15 06:12:31;;;;;;;1999.90;999.90;;;;;;;16.11;72.13;96011.16;5033207;28;20206;-68
2021/09/15 06:14:58;;;;;;;1999.90;999.90;;;;;;;16.07;71.96;96014.72;5032680;28;20221;-71
2021/09/15 06:17:25;;;;;;;1999.90;999.90;;;;;;;16.06;71.49;96019.19;5032791;28;20205;-70
2021/09/15 06:19:53;;;;;;;1999.90;999.90;;;;;;;16.33;70.63;96016.16;5032805;28;20197;-70
2021/09/15 06:22:20;;;;;;;1999.90;999.90;;;;;;;16.58;70.63;96019.75;5032740;28;20212;-69
2021/09/15 06:24:53;;;;;;;1999.90;999.90;;;;;;;16.58;69.38;96026.81;5032630;28;20200;-69
2021/09/15 06:27:22;;;;;;;1999.90;999.90;;;;;;;16.66;69.24;96012.88;5032627;28;20658;-69
2021/09/15 06:29:49;;;;;;;1999.90;999.90;;;;;;;16.69;69.16;96015.63;5032520;28;20201;-70
2021/09/15 06:32:19;;;;;;;1999.90;999.90;;;;;;;17.03;67.58;96022.53;5032751;28;20198;-69
2021/09/15 06:34:47;;;;;;;1999.90;999.90;;;;;;;17.29;66.33;96024.13;5031651;28;20210;-70
2021/09/15 06:37:15;;;;;;;1999.90;999.90;;;;;;;17.60;63.48;96020.03;5032124;28;20216;-69
2021/09/15 06:39:43;;;;;;;1999.90;999.90;;;;;;;17.82;63.13;96020.72;5032225;28;20205;-70
2021/09/15 06:42:11;;;;;;;1999.90;999.90;;;;;;;18.01;62.02;96027.00;5032166;28;20297;-68
2021/09/15 06:44:40;;;;;;;1999.90;999.90;;;;;;;18.18;62.32;96018.13;5032354;28;20194;-70
2021/09/15 06:47:08;;;;;;;1999.90;999.90;;;;;;;18.12;61.42;96016.06;5032541;28;20686;-70
2021/09/15 06:49:35;;;;;;;1999.90;999.90;;;;;;;18.32;61.04;96025.72;5028943;28;20983;-69
2021/09/15 06:52:03;;;;;;;1999.90;999.90;;;;;;;18.71;58.32;96022.41;5023314;28;20630;-70
2021/09/15 06:54:31;;;;;;;1999.90;999.90;;;;;;;18.90;59.13;96019.97;5032165;28;20321;-70
2021/09/15 06:56:58;;;;;;;1999.90;999.90;;;;;;;19.16;56.97;96024.06;5032108;28;20205;-69
2021/09/15 06:59:25;;;;;;;1999.90;999.90;;;;;;;19.29;56.74;96023.69;5032267;28;20209;-70
2021/09/15 07:01:54;;;;;;;1999.90;999.90;;;;;;;19.50;56.54;96023.53;5032241;28;20690;-69
2021/09/15 07:04:22;;;;;;;1999.90;999.90;;;;;;;19.68;56.35;96024.72;5032453;28;20651;-71
2021/09/15 07:06:49;;;;;;;1999.90;999.90;;;;;;;19.78;54.43;96023.47;5031651;28;20236;-71
2021/09/15 07:09:16;;;;;;;1999.90;999.90;;;;;;;19.79;55.18;96019.72;5032283;28;20206;-70
2021/09/15 07:11:44;;;;;;;1999.90;999.90;;;;;;;19.71;54.88;96020.66;5031833;28;20251;-69
2021/09/15 07:14:11;;;;;;;1999.90;999.90;;;;;;;19.74;55.40;96018.13;5031789;28;20280;-70
2021/09/15 07:16:38;;;;;;;1999.90;999.90;;;;;;;19.78;54.94;96021.59;5031647;28;20674;-70
2021/09/15 07:19:09;;;;;;;1999.90;999.90;;;;;;;19.90;54.50;96026.06;5031675;28;20202;-70
2021/09/15 07:21:36;;;;;;;1999.90;999.90;;;;;;;19.78;54.91;96026.88;5031825;28;20198;-70
2021/09/15 07:24:04;;;;;;;1999.90;999.90;;;;;;;19.92;54.38;96023.09;5031816;28;20245;-71
2021/09/15 07:26:31;;;;;;;1999.90;999.90;;;;;;;20.14;54.65;96027.75;5031406;28;20198;-68
2021/09/15 07:28:59;;;;;;;1999.90;999.90;;;;;;;19.93;55.98;96024.59;5031655;28;20292;-69
2021/09/15 07:31:26;;;;;;;1999.90;999.90;;;;;;;19.89;56.58;96026.38;5031236;28;20210;-70
2021/09/15 07:33:53;;;;;;;1999.90;999.90;;;;;;;20.22;55.79;96024.19;5031736;28;20198;-69
2021/09/15 07:36:22;;;;;;;1999.90;999.90;;;;;;;20.16;55.52;96026.31;5031259;28;20236;-70
2021/09/15 07:38:49;;;;;;;1999.90;999.90;;;;;;;20.54;55.21;96028.34;5031674;28;20194;-70
2021/09/15 07:41:17;;;;;;;1999.90;999.90;;;;;;;20.74;54.14;96025.75;5031282;28;20237;-70
2021/09/15 07:43:44;;;;;;;1999.90;999.90;;;;;;;20.82;53.57;96022.16;5031266;28;20194;-71
2021/09/15 07:46:11;;;;;;;1999.90;999.90;;;;;;;20.84;53.55;96025.97;5030991;28;20724;-70
2021/09/15 07:48:39;;;;;;;1999.90;999.90;;;;;;;20.95;52.76;96026.97;5030715;28;20190;-70
2021/09/15 07:51:06;;;;;;;1999.90;999.90;;;;;;;20.76;52.49;96019.03;5031231;28;20206;-69
2021/09/15 11:48:53;;;;;;;1999.90;999.90;;;;;;;30.63;27.42;95797.13;5127467;27;20288;-68
2021/09/15 11:51:23;;;;;;;1999.90;999.90;;;;;;;30.86;26.23;95795.47;5106669;28;20233;-69
2021/09/15 11:53:54;;;;;;;1999.90;999.90;;;;;;;30.44;25.92;95792.50;5106920;28;20195;-69
2021/09/15 11:56:28;;;;;;;1999.90;999.90;;;;;;;30.04;26.62;95796.38;5106710;28;20195;-68
2021/09/15 11:58:55;;;;;;;1999.90;999.90;;;;;;;29.87;27.37;95792.81;5106374;28;20232;-69
2021/09/15 12:01:23;;;;;;;1999.90;999.90;;;;;;;29.78;26.57;95790.69;5106661;28;20294;-70
2021/09/15 12:03:51;;;;;;;1999.90;999.90;;;;;;;29.37;28.08;95787.56;5106569;28;20195;-68
2021/09/15 12:06:21;;;;;;;1999.90;999.90;;;;;;;29.48;27.64;95780.13;5106210;28;20693;-69
2021/09/15 12:08:49;;;;;;;1999.90;999.90;;;;;;;29.39;27.95;95774.53;5106286;28;20815;-69
2021/09/15 12:11:17;;;;;;;1999.90;999.90;;;;;;;29.40;26.96;95771.44;5106243;28;20310;-69
2021/09/15 12:13:45;;;;;;;1999.90;999.90;;;;;;;29.24;27.44;95773.22;5106459;28;20294;-69
2021/09/15 12:16:25;;;;;;;1999.90;999.90;;;;;;;29.19;28.26;95773.69;5106064;28;20219;-69
2021/09/15 12:18:53;;;;;;;1999.90;999.90;;;;;;;29.28;27.79;95771.25;5106277;28;20218;-69
2021/09/15 12:21:23;;;;;;;1999.90;999.90;;;;;;;29.45;27.44;95764.84;5106113;28;20698;-69
2021/09/15 12:23:52;;;;;;;1999.90;999.90;;;;;;;29.26;28.05;95768.97;5106080;28;20176;-69
2021/09/15 12:26:26;;;;;;;1999.90;999.90;;;;;;;29.37;27.29;95760.78;5105849;28;20195;-69
2021/09/15 12:29:05;;;;;;;1999.90;999.90;;;;;;;29.51;26.14;95760.53;5106278;28;20186;-69
2021/09/15 12:31:45;;;;;;;1999.90;999.90;;;;;;;29.51;26.44;95757.88;5105974;28;20209;-69
2021/09/15 12:34:13;;;;;;;1999.90;999.90;;;;;;;29.70;26.13;95754.47;5105800;28;20187;-68
2021/09/15 12:36:43;;;;;;;1999.90;999.90;;;;;;;29.68;27.41;95758.72;5106072;28;20196;-69
2021/09/15 12:39:15;;;;;;;1999.90;999.90;;;;;;;29.65;26.29;95749.56;5105994;28;20278;-69
2021/09/15 12:41:54;;;;;;;1999.90;999.90;;;;;;;29.86;27.38;95749.19;5105940;28;20195;-68
2021/09/15 12:44:25;;;;;;;1999.90;999.90;;;;;;;30.24;25.57;95746.91;5106094;28;20568;-69
2021/09/15 12:46:54;;;;;;;1999.90;999.90;;;;;;;30.25;25.62;95736.94;5105193;28;20277;-68
2021/09/15 12:49:32;;;;;;;1999.90;999.90;;;;;;;30.11;26.91;95746.06;5094396;28;20195;-69
2021/09/15 12:52:06;;;;;;;1999.90;999.90;;;;;;;30.06;26.30;95740.41;5092235;28;20282;-69
2021/09/15 12:54:34;;;;;;;1999.90;999.90;;;;;;;30.13;26.81;95737.59;5092161;28;20573;-69
2021/09/15 12:57:15;;;;;;;1999.90;999.90;;;;;;;30.10;26.75;95741.84;5091932;28;20188;-69
2021/09/15 12:59:42;;;;;;;1999.90;999.90;;;;;;;30.00;26.34;95742.81;5090129;28;20197;-68
2021/09/15 13:02:29;;;;;;;1999.90;999.90;;;;;;;29.76;26.11;95747.47;5080124;28;20204;-68
2021/09/15 13:04:56;;;;;;;1999.90;999.90;;;;;;;29.45;26.61;95740.75;5071354;28;20199;-68
2021/09/15 13:07:25;;;;;;;1999.90;999.90;;;;;;;29.27;27.33;95737.59;5071269;28;20234;-68
2021/09/15 13:09:53;;;;;;;1999.90;999.90;;;;;;;29.20;27.46;95735.78;5071346;28;20279;-68
2021/09/15 13:12:21;;;;;;;1999.90;999.90;;;;;;;29.09;28.42;95735.94;5071217;28;20227;-70
2021/09/15 13:14:51;;;;;;;1999.90;999.90;;;;;;;29.08;28.25;95737.13;5071186;28;20196;-69
2021/09/15 13:17:19;;;;;;;1999.90;999.90;;;;;;;28.78;28.74;95726.53;5071250;28;20578;-68
2021/09/15 13:19:46;;;;;;;1999.90;999.90;;;;;;;28.83;29.23;95730.66;5071184;28;20200;-69
2021/09/15 13:22:14;;;;;;;1999.90;999.90;;;;;;;28.73;28.75;95724.31;5071407;28;20207;-68
2021/09/15 13:24:43;;;;;;;1999.90;999.90;;;;;;;28.65;29.29;95720.16;5070907;28;20202;-68
2021/09/15 13:27:10;;;;;;;1999.90;999.90;;;;;;;28.63;29.37;95719.84;5071055;28;20228;-69
2021/09/15 13:29:38;;;;;;;1999.90;999.90;;;;;;;28.62;29.63;95715.63;5071073;28;20215;-68
2021/09/15 13:32:08;;;;;;;1999.90;999.90;;;;;;;28.54;29.11;95714.97;5071098;28;20675;-68
2021/09/15 13:34:35;;;;;;;1999.90;999.90;;;;;;;28.55;29.54;95723.75;5070845;28;20204;-68
2021/09/15 13:37:02;;;;;;;1999.90;999.90;;;;;;;28.46;28.99;95715.47;5070985;28;20224;-68
2021/09/15 13:39:30;;;;;;;1999.90;999.90;;;;;;;28.17;29.17;95713.19;5083851;28;20628;-70
2021/09/15 13:42:00;;;;;;;1999.90;999.90;;;;;;;28.18;29.67;95722.72;5091321;28;20241;-70
2021/09/15 13:44:27;;;;;;;1999.90;999.90;;;;;;;28.22;30.64;95723.44;5090999;28;20223;-69
2021/09/15 13:46:55;;;;;;;1999.90;999.90;;;;;;;28.17;31.58;95715.88;5090517;28;20234;-68
2021/09/15 13:49:22;;;;;;;1999.90;999.90;;;;;;;28.14;31.01;95718.59;5090884;28;20283;-70
2021/09/15 13:51:50;;;;;;;1999.90;999.90;;;;;;;28.00;30.85;95714.13;5080942;28;20208;-69
2021/09/15 13:54:18;;;;;;;1999.90;999.90;;;;;;;27.85;31.29;95712.78;5070318;28;20283;-69
2021/09/15 13:56:45;;;;;;;1999.90;999.90;;;;;;;27.77;31.53;95712.13;5070583;28;20242;-69
2021/09/15 13:59:14;;;;;;;1999.90;999.90;;;;;;;27.73;31.91;95707.97;5070154;28;20718;-69
2021/09/15 14:01:41;;;;;;;1999.90;999.90;;;;;;;27.71;32.34;95712.94;5069446;28;20243;-69
2021/09/15 14:04:08;;;;;;;1999.90;999.90;;;;;;;27.69;32.90;95713.34;5070140;28;20283;-69
2021/09/15 14:06:36;;;;;;;1999.90;999.90;;;;;;;27.66;33.80;95718.72;5070375;28;20759;-69
2021/09/15 14:09:03;;;;;;;1999.90;999.90;;;;;;;27.77;33.69;95716.69;5070393;28;20231;-69
2021/09/15 14:11:30;;;;;;;1999.90;999.90;;;;;;;27.72;32.96;95717.91;5070279;28;20192;-70
2021/09/15 14:13:58;;;;;;;1999.90;999.90;;;;;;;28.03;33.50;95710.66;5069558;28;20192;-67
2021/09/15 14:16:27;;;;;;;1999.90;999.90;;;;;;;28.21;32.46;95718.47;5079880;28;20255;-68
2021/09/15 14:18:54;;;;;;;1999.90;999.90;;;;;;;28.33;31.56;95717.19;5089657;28;20203;-74
2021/09/15 14:21:21;;;;;;;1999.90;999.90;;;;;;;28.28;32.20;95714.97;5078186;28;20235;-73
2021/09/15 14:23:48;;;;;;;1999.90;999.90;;;;;;;28.21;31.80;95716.56;5080293;28;20605;-73
2021/09/15 14:26:15;;;;;;;1999.90;999.90;;;;;;;28.16;32.05;95719.69;5077610;28;20257;-74
2021/09/15 14:28:43;;;;;;;1999.90;999.90;;;;;;;28.13;31.73;95719.75;5080327;28;20211;-74
2021/09/15 14:31:10;;;;;;;1999.90;999.90;;;;;;;28.20;31.79;95716.97;5078147;28;20200;-75
2021/09/15 14:33:38;;;;;;;1999.90;999.90;;;;;;;28.32;30.73;95718.34;5079759;28;20273;-76
2021/09/15 14:36:06;;;;;;;1999.90;999.90;;;;;;;28.32;30.70;95721.03;5080629;28;20572;-76
2021/09/15 14:38:34;;;;;;;1999.90;999.90;;;;;;;28.23;30.64;95708.16;5080542;28;20195;-77
2021/09/15 14:41:01;;;;;;;1999.90;999.90;;;;;;;28.33;30.62;95709.94;5086233;28;20195;-76
2021/09/15 14:43:28;;;;;;;1999.90;999.90;;;;;;;28.43;29.14;95710.94;5092437;28;20195;-76
2021/09/15 14:45:56;;;;;;;1999.90;999.90;;;;;;;28.40;29.62;95706.38;5089423;28;20200;-76
2021/09/15 14:48:24;;;;;;;1999.90;999.90;;;;;;;28.42;29.43;95712.09;5089456;28;20235;-76
2021/09/15 14:50:52;;;;;;;1999.90;999.90;;;;;;;28.44;30.01;95707.13;5088504;28;20616;-76
2021/09/15 14:53:19;;;;;;;1999.90;999.90;;;;;;;28.47;30.16;95717.75;5069017;28;20206;-76
2021/09/15 14:55:46;;;;;;;1999.90;999.90;;;;;;;28.51;29.86;95712.34;5069156;28;20202;-76
2021/09/15 14:58:14;;;;;;;1999.90;999.90;;;;;;;28.50;29.46;95713.50;5069129;28;20197;-77